sensor_id;sensor_type;location;lat;lon;timestamp;P1;durP1;ratioP1;P2;durP2;ratioP2
62679;SDS011;68213;40.528;44.712;2023-07-09T00:01:00;17.67;;;5.32;;
62679;SDS011;68213;40.528;44.712;2023-07-09T00:02:01;14.73;;;5.05;;
62679;SDS011;68213;40.528;44.712;2023-07-09T00:03:02;16.52;;;5.55;;
62679;SDS011;68213;40.528;44.712;2023-07-09T00:04:03;16.42;;;5.50;;
62679;SDS011;68213;40.528;44.712;2023-07-09T00:05:04;19.65;;;6.07;;
62679;SDS011;68213;40.528;44.712;2023-07-09T00:06:07;22.58;;;5.88;;
62679;SDS011;68213;40.528;44.712;2023-07-09T00:07:28;13.32;;;4.90;;
62679;SDS011;68213;40.528;44.712;2023-07-09T00:08:31;20.38;;;5.28;;
62679;SDS011;68213;40.528;44.712;2023-07-09T00:09:33;11.73;;;4.97;;
62679;SDS011;68213;40.528;44.712;2023-07-09T00:10:34;15.18;;;5.78;;
62679;SDS011;68213;40.528;44.712;2023-07-09T00:11:35;11.13;;;5.43;;
62679;SDS011;68213;40.528;44.712;2023-07-09T00:12:36;14.65;;;5.30;;
62679;SDS011;68213;40.528;44.712;2023-07-09T00:13:37;13.85;;;5.13;;
62679;SDS011;68213;40.528;44.712;2023-07-09T00:14:38;19.08;;;5.55;;
62679;SDS011;68213;40.528;44.712;2023-07-09T00:15:38;17.98;;;5.10;;
62679;SDS011;68213;40.528;44.712;2023-07-09T00:16:39;13.18;;;5.32;;
62679;SDS011;68213;40.528;44.712;2023-07-09T00:17:41;15.90;;;5.40;;
62679;SDS011;68213;40.528;44.712;2023-07-09T00:18:43;12.75;;;5.30;;
62679;SDS011;68213;40.528;44.712;2023-07-09T00:19:44;17.27;;;5.47;;
62679;SDS011;68213;40.528;44.712;2023-07-09T00:20:45;13.57;;;5.45;;
62679;SDS011;68213;40.528;44.712;2023-07-09T00:21:50;13.98;;;5.40;;
62679;SDS011;68213;40.528;44.712;2023-07-09T00:22:54;12.90;;;5.22;;
62679;SDS011;68213;40.528;44.712;2023-07-09T00:23:55;12.05;;;5.50;;
62679;SDS011;68213;40.528;44.712;2023-07-09T00:24:56;17.40;;;5.47;;
62679;SDS011;68213;40.528;44.712;2023-07-09T00:27:01;16.15;;;5.53;;
62679;SDS011;68213;40.528;44.712;2023-07-09T00:28:02;12.23;;;5.40;;
62679;SDS011;68213;40.528;44.712;2023-07-09T00:29:03;17.90;;;5.15;;
62679;SDS011;68213;40.528;44.712;2023-07-09T00:30:04;15.23;;;4.95;;
62679;SDS011;68213;40.528;44.712;2023-07-09T00:31:15;18.58;;;5.93;;
62679;SDS011;68213;40.528;44.712;2023-07-09T00:32:17;17.70;;;5.68;;
62679;SDS011;68213;40.528;44.712;2023-07-09T00:33:20;17.45;;;5.50;;
62679;SDS011;68213;40.528;44.712;2023-07-09T00:34:21;15.32;;;5.85;;
62679;SDS011;68213;40.528;44.712;2023-07-09T00:35:25;17.33;;;6.25;;
62679;SDS011;68213;40.528;44.712;2023-07-09T00:36:28;12.95;;;5.78;;
62679;SDS011;68213;40.528;44.712;2023-07-09T00:37:33;9.70;;;5.47;;
62679;SDS011;68213;40.528;44.712;2023-07-09T00:38:34;18.35;;;5.80;;
62679;SDS011;68213;40.528;44.712;2023-07-09T00:39:38;19.05;;;5.80;;
62679;SDS011;68213;40.528;44.712;2023-07-09T00:40:45;19.65;;;5.95;;
62679;SDS011;68213;40.528;44.712;2023-07-09T00:42:11;14.23;;;5.43;;
62679;SDS011;68213;40.528;44.712;2023-07-09T00:43:15;21.25;;;5.60;;
62679;SDS011;68213;40.528;44.712;2023-07-09T00:45:21;17.35;;;5.20;;
62679;SDS011;68213;40.528;44.712;2023-07-09T00:47:28;25.58;;;6.72;;
62679;SDS011;68213;40.528;44.712;2023-07-09T00:48:42;15.73;;;5.70;;
62679;SDS011;68213;40.528;44.712;2023-07-09T00:49:45;13.63;;;5.97;;
62679;SDS011;68213;40.528;44.712;2023-07-09T00:50:50;20.92;;;6.10;;
62679;SDS011;68213;40.528;44.712;2023-07-09T00:51:53;21.95;;;5.88;;
62679;SDS011;68213;40.528;44.712;2023-07-09T00:52:59;18.92;;;5.68;;
62679;SDS011;68213;40.528;44.712;2023-07-09T00:54:11;17.15;;;5.47;;
62679;SDS011;68213;40.528;44.712;2023-07-09T00:55:23;17.45;;;5.53;;
62679;SDS011;68213;40.528;44.712;2023-07-09T00:56:30;15.32;;;6.20;;
62679;SDS011;68213;40.528;44.712;2023-07-09T00:58:38;19.20;;;6.00;;
62679;SDS011;68213;40.528;44.712;2023-07-09T00:59:41;19.88;;;5.90;;
62679;SDS011;68213;40.528;44.712;2023-07-09T01:00:46;16.42;;;5.55;;
62679;SDS011;68213;40.528;44.712;2023-07-09T01:01:55;12.73;;;5.88;;
62679;SDS011;68213;40.528;44.712;2023-07-09T01:02:57;15.65;;;6.20;;
62679;SDS011;68213;40.528;44.712;2023-07-09T01:03:59;12.52;;;5.43;;
62679;SDS011;68213;40.528;44.712;2023-07-09T01:05:03;16.05;;;5.65;;
62679;SDS011;68213;40.528;44.712;2023-07-09T01:06:06;12.77;;;5.78;;
62679;SDS011;68213;40.528;44.712;2023-07-09T01:07:07;19.73;;;5.97;;
62679;SDS011;68213;40.528;44.712;2023-07-09T01:08:08;17.92;;;5.75;;
62679;SDS011;68213;40.528;44.712;2023-07-09T01:09:10;18.02;;;6.20;;
62679;SDS011;68213;40.528;44.712;2023-07-09T01:10:15;18.40;;;6.85;;
62679;SDS011;68213;40.528;44.712;2023-07-09T01:11:19;24.27;;;6.40;;
62679;SDS011;68213;40.528;44.712;2023-07-09T01:12:23;18.75;;;5.80;;
62679;SDS011;68213;40.528;44.712;2023-07-09T01:13:28;19.48;;;6.00;;
62679;SDS011;68213;40.528;44.712;2023-07-09T01:14:35;18.00;;;5.63;;
62679;SDS011;68213;40.528;44.712;2023-07-09T01:15:37;20.95;;;7.13;;
62679;SDS011;68213;40.528;44.712;2023-07-09T01:16:38;23.55;;;6.47;;
62679;SDS011;68213;40.528;44.712;2023-07-09T01:17:43;19.98;;;6.45;;
62679;SDS011;68213;40.528;44.712;2023-07-09T01:18:49;18.60;;;6.20;;
62679;SDS011;68213;40.528;44.712;2023-07-09T01:19:50;20.50;;;6.00;;
62679;SDS011;68213;40.528;44.712;2023-07-09T01:20:57;15.07;;;6.32;;
62679;SDS011;68213;40.528;44.712;2023-07-09T01:23:02;20.75;;;6.20;;
62679;SDS011;68213;40.528;44.712;2023-07-09T01:24:14;18.92;;;5.72;;
62679;SDS011;68213;40.528;44.712;2023-07-09T01:25:37;20.15;;;6.15;;
62679;SDS011;68213;40.528;44.712;2023-07-09T01:26:43;16.20;;;6.15;;
62679;SDS011;68213;40.528;44.712;2023-07-09T01:27:45;16.65;;;5.82;;
62679;SDS011;68213;40.528;44.712;2023-07-09T01:28:47;20.45;;;6.05;;
62679;SDS011;68213;40.528;44.712;2023-07-09T01:29:49;20.15;;;6.38;;
62679;SDS011;68213;40.528;44.712;2023-07-09T01:30:49;17.08;;;6.22;;
62679;SDS011;68213;40.528;44.712;2023-07-09T01:31:54;15.85;;;6.65;;
62679;SDS011;68213;40.528;44.712;2023-07-09T01:32:59;22.38;;;5.88;;
62679;SDS011;68213;40.528;44.712;2023-07-09T01:34:01;16.27;;;6.10;;
62679;SDS011;68213;40.528;44.712;2023-07-09T01:35:03;25.52;;;6.15;;
62679;SDS011;68213;40.528;44.712;2023-07-09T01:36:07;23.83;;;6.50;;
62679;SDS011;68213;40.528;44.712;2023-07-09T01:37:17;23.80;;;6.22;;
62679;SDS011;68213;40.528;44.712;2023-07-09T01:38:22;15.52;;;6.40;;
62679;SDS011;68213;40.528;44.712;2023-07-09T01:39:22;13.93;;;6.53;;
62679;SDS011;68213;40.528;44.712;2023-07-09T01:40:24;13.90;;;5.72;;
62679;SDS011;68213;40.528;44.712;2023-07-09T01:41:27;19.63;;;6.45;;
62679;SDS011;68213;40.528;44.712;2023-07-09T01:42:28;15.65;;;6.43;;
62679;SDS011;68213;40.528;44.712;2023-07-09T01:43:29;25.40;;;6.82;;
62679;SDS011;68213;40.528;44.712;2023-07-09T01:44:31;19.85;;;6.28;;
62679;SDS011;68213;40.528;44.712;2023-07-09T01:45:32;21.45;;;5.88;;
62679;SDS011;68213;40.528;44.712;2023-07-09T01:46:34;11.85;;;6.03;;
62679;SDS011;68213;40.528;44.712;2023-07-09T01:47:35;20.45;;;6.57;;
62679;SDS011;68213;40.528;44.712;2023-07-09T01:48:36;36.95;;;8.75;;
62679;SDS011;68213;40.528;44.712;2023-07-09T01:49:41;32.33;;;8.35;;
62679;SDS011;68213;40.528;44.712;2023-07-09T01:50:42;21.75;;;6.57;;
62679;SDS011;68213;40.528;44.712;2023-07-09T01:51:43;26.98;;;7.85;;
62679;SDS011;68213;40.528;44.712;2023-07-09T01:52:44;18.42;;;5.57;;
62679;SDS011;68213;40.528;44.712;2023-07-09T01:53:46;20.27;;;6.50;;
62679;SDS011;68213;40.528;44.712;2023-07-09T01:54:46;15.15;;;5.72;;
62679;SDS011;68213;40.528;44.712;2023-07-09T01:55:50;20.40;;;6.20;;
62679;SDS011;68213;40.528;44.712;2023-07-09T01:56:51;27.15;;;6.63;;
62679;SDS011;68213;40.528;44.712;2023-07-09T01:57:57;21.27;;;7.28;;
62679;SDS011;68213;40.528;44.712;2023-07-09T01:58:57;19.77;;;6.93;;
62679;SDS011;68213;40.528;44.712;2023-07-09T02:00:08;19.00;;;6.85;;
62679;SDS011;68213;40.528;44.712;2023-07-09T02:01:11;23.35;;;6.85;;
62679;SDS011;68213;40.528;44.712;2023-07-09T02:02:12;23.35;;;6.80;;
62679;SDS011;68213;40.528;44.712;2023-07-09T02:03:15;23.25;;;6.88;;
62679;SDS011;68213;40.528;44.712;2023-07-09T02:04:18;31.17;;;7.15;;
62679;SDS011;68213;40.528;44.712;2023-07-09T02:05:19;30.90;;;7.20;;
62679;SDS011;68213;40.528;44.712;2023-07-09T02:06:20;24.88;;;7.05;;
62679;SDS011;68213;40.528;44.712;2023-07-09T02:07:27;21.98;;;6.50;;
62679;SDS011;68213;40.528;44.712;2023-07-09T02:08:27;17.35;;;6.55;;
62679;SDS011;68213;40.528;44.712;2023-07-09T02:10:35;17.25;;;6.68;;
62679;SDS011;68213;40.528;44.712;2023-07-09T02:11:36;24.00;;;6.00;;
62679;SDS011;68213;40.528;44.712;2023-07-09T02:12:37;23.05;;;7.03;;
62679;SDS011;68213;40.528;44.712;2023-07-09T02:13:40;38.33;;;7.75;;
62679;SDS011;68213;40.528;44.712;2023-07-09T02:14:41;22.38;;;6.43;;
62679;SDS011;68213;40.528;44.712;2023-07-09T02:15:43;20.98;;;7.20;;
62679;SDS011;68213;40.528;44.712;2023-07-09T02:16:44;23.70;;;6.68;;
62679;SDS011;68213;40.528;44.712;2023-07-09T02:17:45;27.27;;;6.68;;
62679;SDS011;68213;40.528;44.712;2023-07-09T02:18:47;23.73;;;6.97;;
62679;SDS011;68213;40.528;44.712;2023-07-09T02:19:48;24.02;;;7.03;;
62679;SDS011;68213;40.528;44.712;2023-07-09T02:20:49;29.10;;;7.80;;
62679;SDS011;68213;40.528;44.712;2023-07-09T02:21:50;37.25;;;7.00;;
62679;SDS011;68213;40.528;44.712;2023-07-09T02:22:51;21.00;;;6.60;;
62679;SDS011;68213;40.528;44.712;2023-07-09T02:23:51;24.08;;;7.15;;
62679;SDS011;68213;40.528;44.712;2023-07-09T02:24:56;23.85;;;7.05;;
62679;SDS011;68213;40.528;44.712;2023-07-09T02:25:57;32.55;;;8.00;;
62679;SDS011;68213;40.528;44.712;2023-07-09T02:26:58;38.60;;;7.90;;
62679;SDS011;68213;40.528;44.712;2023-07-09T02:28:00;18.38;;;6.45;;
62679;SDS011;68213;40.528;44.712;2023-07-09T02:29:01;26.23;;;6.93;;
62679;SDS011;68213;40.528;44.712;2023-07-09T02:30:03;25.90;;;7.10;;
62679;SDS011;68213;40.528;44.712;2023-07-09T02:31:07;31.20;;;7.82;;
62679;SDS011;68213;40.528;44.712;2023-07-09T02:32:08;32.78;;;8.10;;
62679;SDS011;68213;40.528;44.712;2023-07-09T02:33:10;30.42;;;6.75;;
62679;SDS011;68213;40.528;44.712;2023-07-09T02:34:10;24.83;;;7.15;;
62679;SDS011;68213;40.528;44.712;2023-07-09T02:35:11;26.90;;;6.70;;
62679;SDS011;68213;40.528;44.712;2023-07-09T02:36:13;33.05;;;7.40;;
62679;SDS011;68213;40.528;44.712;2023-07-09T02:37:13;28.08;;;6.85;;
62679;SDS011;68213;40.528;44.712;2023-07-09T02:38:16;20.45;;;6.20;;
62679;SDS011;68213;40.528;44.712;2023-07-09T02:39:17;29.50;;;7.07;;
62679;SDS011;68213;40.528;44.712;2023-07-09T02:40:17;30.80;;;7.35;;
62679;SDS011;68213;40.528;44.712;2023-07-09T02:41:21;22.27;;;6.43;;
62679;SDS011;68213;40.528;44.712;2023-07-09T02:42:22;28.55;;;7.50;;
62679;SDS011;68213;40.528;44.712;2023-07-09T02:43:23;27.00;;;6.43;;
62679;SDS011;68213;40.528;44.712;2023-07-09T02:44:25;28.30;;;6.70;;
62679;SDS011;68213;40.528;44.712;2023-07-09T02:45:27;32.45;;;7.75;;
62679;SDS011;68213;40.528;44.712;2023-07-09T02:46:28;31.17;;;7.30;;
62679;SDS011;68213;40.528;44.712;2023-07-09T02:47:28;34.10;;;7.53;;
62679;SDS011;68213;40.528;44.712;2023-07-09T02:48:29;26.15;;;7.70;;
62679;SDS011;68213;40.528;44.712;2023-07-09T02:49:30;26.65;;;7.00;;
62679;SDS011;68213;40.528;44.712;2023-07-09T02:50:31;37.35;;;7.70;;
62679;SDS011;68213;40.528;44.712;2023-07-09T02:51:31;28.10;;;7.80;;
62679;SDS011;68213;40.528;44.712;2023-07-09T02:52:32;32.20;;;6.88;;
62679;SDS011;68213;40.528;44.712;2023-07-09T02:53:35;25.92;;;7.07;;
62679;SDS011;68213;40.528;44.712;2023-07-09T02:54:36;26.88;;;7.38;;
62679;SDS011;68213;40.528;44.712;2023-07-09T02:55:37;24.38;;;7.22;;
62679;SDS011;68213;40.528;44.712;2023-07-09T02:56:37;39.90;;;8.00;;
62679;SDS011;68213;40.528;44.712;2023-07-09T02:57:38;45.72;;;7.78;;
62679;SDS011;68213;40.528;44.712;2023-07-09T02:58:39;26.65;;;7.38;;
62679;SDS011;68213;40.528;44.712;2023-07-09T02:59:39;35.63;;;7.50;;
62679;SDS011;68213;40.528;44.712;2023-07-09T03:00:40;34.83;;;7.43;;
62679;SDS011;68213;40.528;44.712;2023-07-09T03:01:41;28.73;;;7.35;;
62679;SDS011;68213;40.528;44.712;2023-07-09T03:02:42;26.30;;;7.57;;
62679;SDS011;68213;40.528;44.712;2023-07-09T03:03:42;23.63;;;7.60;;
62679;SDS011;68213;40.528;44.712;2023-07-09T03:04:43;22.55;;;6.90;;
62679;SDS011;68213;40.528;44.712;2023-07-09T03:05:47;34.30;;;6.57;;
62679;SDS011;68213;40.528;44.712;2023-07-09T03:06:48;24.73;;;6.88;;
62679;SDS011;68213;40.528;44.712;2023-07-09T03:07:49;29.33;;;6.95;;
62679;SDS011;68213;40.528;44.712;2023-07-09T03:08:49;26.58;;;7.15;;
62679;SDS011;68213;40.528;44.712;2023-07-09T03:09:51;29.98;;;7.13;;
62679;SDS011;68213;40.528;44.712;2023-07-09T03:10:52;28.42;;;7.13;;
62679;SDS011;68213;40.528;44.712;2023-07-09T03:11:53;33.38;;;7.63;;
62679;SDS011;68213;40.528;44.712;2023-07-09T03:12:54;24.52;;;6.80;;
62679;SDS011;68213;40.528;44.712;2023-07-09T03:13:55;28.45;;;7.03;;
62679;SDS011;68213;40.528;44.712;2023-07-09T03:14:56;43.70;;;7.53;;
62679;SDS011;68213;40.528;44.712;2023-07-09T03:15:57;29.67;;;7.40;;
62679;SDS011;68213;40.528;44.712;2023-07-09T03:16:58;29.88;;;6.72;;
62679;SDS011;68213;40.528;44.712;2023-07-09T03:17:59;25.25;;;6.97;;
62679;SDS011;68213;40.528;44.712;2023-07-09T03:19:00;27.60;;;6.70;;
62679;SDS011;68213;40.528;44.712;2023-07-09T03:20:03;29.95;;;7.88;;
62679;SDS011;68213;40.528;44.712;2023-07-09T03:21:05;31.65;;;7.40;;
62679;SDS011;68213;40.528;44.712;2023-07-09T03:22:06;41.95;;;7.78;;
62679;SDS011;68213;40.528;44.712;2023-07-09T03:23:07;28.25;;;7.70;;
62679;SDS011;68213;40.528;44.712;2023-07-09T03:24:07;35.50;;;7.82;;
62679;SDS011;68213;40.528;44.712;2023-07-09T03:25:08;29.17;;;7.43;;
62679;SDS011;68213;40.528;44.712;2023-07-09T03:26:09;26.45;;;7.50;;
62679;SDS011;68213;40.528;44.712;2023-07-09T03:27:12;25.15;;;7.32;;
62679;SDS011;68213;40.528;44.712;2023-07-09T03:28:13;33.50;;;7.40;;
62679;SDS011;68213;40.528;44.712;2023-07-09T03:29:14;28.88;;;6.72;;
62679;SDS011;68213;40.528;44.712;2023-07-09T03:30:15;32.10;;;6.93;;
62679;SDS011;68213;40.528;44.712;2023-07-09T03:31:16;34.60;;;7.25;;
62679;SDS011;68213;40.528;44.712;2023-07-09T03:32:17;41.95;;;8.25;;
62679;SDS011;68213;40.528;44.712;2023-07-09T03:33:17;34.85;;;6.97;;
62679;SDS011;68213;40.528;44.712;2023-07-09T03:34:18;34.83;;;8.15;;
62679;SDS011;68213;40.528;44.712;2023-07-09T03:35:19;29.05;;;7.78;;
62679;SDS011;68213;40.528;44.712;2023-07-09T03:36:20;36.20;;;7.78;;
62679;SDS011;68213;40.528;44.712;2023-07-09T03:37:20;29.75;;;6.95;;
62679;SDS011;68213;40.528;44.712;2023-07-09T03:38:21;33.17;;;6.57;;
62679;SDS011;68213;40.528;44.712;2023-07-09T03:39:22;30.00;;;7.57;;
62679;SDS011;68213;40.528;44.712;2023-07-09T03:40:23;31.90;;;7.50;;
62679;SDS011;68213;40.528;44.712;2023-07-09T03:41:26;33.13;;;7.32;;
62679;SDS011;68213;40.528;44.712;2023-07-09T03:42:27;28.48;;;7.60;;
62679;SDS011;68213;40.528;44.712;2023-07-09T03:43:27;42.92;;;7.47;;
62679;SDS011;68213;40.528;44.712;2023-07-09T03:44:28;29.10;;;7.70;;
62679;SDS011;68213;40.528;44.712;2023-07-09T03:45:29;44.55;;;7.80;;
62679;SDS011;68213;40.528;44.712;2023-07-09T03:46:31;33.95;;;7.03;;
62679;SDS011;68213;40.528;44.712;2023-07-09T03:47:31;38.90;;;7.75;;
62679;SDS011;68213;40.528;44.712;2023-07-09T03:48:32;41.03;;;7.95;;
62679;SDS011;68213;40.528;44.712;2023-07-09T03:49:33;44.80;;;7.85;;
62679;SDS011;68213;40.528;44.712;2023-07-09T03:50:34;37.72;;;7.85;;
62679;SDS011;68213;40.528;44.712;2023-07-09T03:51:34;47.58;;;8.60;;
62679;SDS011;68213;40.528;44.712;2023-07-09T03:52:35;39.05;;;7.40;;
62679;SDS011;68213;40.528;44.712;2023-07-09T03:53:36;47.72;;;8.32;;
62679;SDS011;68213;40.528;44.712;2023-07-09T03:54:37;35.17;;;7.40;;
62679;SDS011;68213;40.528;44.712;2023-07-09T03:55:37;35.58;;;8.32;;
62679;SDS011;68213;40.528;44.712;2023-07-09T03:56:38;28.27;;;7.68;;
62679;SDS011;68213;40.528;44.712;2023-07-09T03:57:39;29.45;;;6.88;;
62679;SDS011;68213;40.528;44.712;2023-07-09T03:58:40;38.17;;;6.90;;
62679;SDS011;68213;40.528;44.712;2023-07-09T03:59:41;24.15;;;6.72;;
62679;SDS011;68213;40.528;44.712;2023-07-09T04:00:41;21.88;;;5.80;;
62679;SDS011;68213;40.528;44.712;2023-07-09T04:01:42;21.77;;;5.88;;
62679;SDS011;68213;40.528;44.712;2023-07-09T04:02:46;17.98;;;5.45;;
62679;SDS011;68213;40.528;44.712;2023-07-09T04:03:47;20.58;;;5.63;;
62679;SDS011;68213;40.528;44.712;2023-07-09T04:04:50;21.40;;;5.97;;
62679;SDS011;68213;40.528;44.712;2023-07-09T04:05:51;22.75;;;5.78;;
62679;SDS011;68213;40.528;44.712;2023-07-09T04:06:52;19.63;;;5.60;;
62679;SDS011;68213;40.528;44.712;2023-07-09T04:07:53;18.13;;;5.90;;
62679;SDS011;68213;40.528;44.712;2023-07-09T04:08:53;12.95;;;5.25;;
62679;SDS011;68213;40.528;44.712;2023-07-09T04:09:54;17.17;;;5.88;;
62679;SDS011;68213;40.528;44.712;2023-07-09T04:10:58;18.40;;;5.50;;
62679;SDS011;68213;40.528;44.712;2023-07-09T04:12:00;17.20;;;5.57;;
62679;SDS011;68213;40.528;44.712;2023-07-09T04:13:03;14.80;;;5.68;;
62679;SDS011;68213;40.528;44.712;2023-07-09T04:14:04;21.05;;;5.95;;
62679;SDS011;68213;40.528;44.712;2023-07-09T04:15:06;16.23;;;5.80;;
62679;SDS011;68213;40.528;44.712;2023-07-09T04:16:07;16.02;;;6.15;;
62679;SDS011;68213;40.528;44.712;2023-07-09T04:17:09;21.88;;;6.13;;
62679;SDS011;68213;40.528;44.712;2023-07-09T04:18:10;19.85;;;5.90;;
62679;SDS011;68213;40.528;44.712;2023-07-09T04:19:13;28.10;;;5.90;;
62679;SDS011;68213;40.528;44.712;2023-07-09T04:20:14;27.92;;;6.50;;
62679;SDS011;68213;40.528;44.712;2023-07-09T04:21:16;34.28;;;7.15;;
62679;SDS011;68213;40.528;44.712;2023-07-09T04:22:17;30.42;;;7.15;;
62679;SDS011;68213;40.528;44.712;2023-07-09T04:23:18;25.65;;;6.88;;
62679;SDS011;68213;40.528;44.712;2023-07-09T04:24:20;25.90;;;6.30;;
62679;SDS011;68213;40.528;44.712;2023-07-09T04:25:21;28.77;;;6.93;;
62679;SDS011;68213;40.528;44.712;2023-07-09T04:26:22;33.42;;;7.10;;
62679;SDS011;68213;40.528;44.712;2023-07-09T04:27:24;38.55;;;7.55;;
62679;SDS011;68213;40.528;44.712;2023-07-09T04:28:27;42.75;;;8.18;;
62679;SDS011;68213;40.528;44.712;2023-07-09T04:29:30;37.15;;;8.40;;
62679;SDS011;68213;40.528;44.712;2023-07-09T04:30:36;38.17;;;7.90;;
62679;SDS011;68213;40.528;44.712;2023-07-09T04:31:36;44.88;;;8.15;;
62679;SDS011;68213;40.528;44.712;2023-07-09T04:32:38;31.90;;;7.00;;
62679;SDS011;68213;40.528;44.712;2023-07-09T04:33:43;53.55;;;8.27;;
62679;SDS011;68213;40.528;44.712;2023-07-09T04:34:45;39.15;;;7.75;;
62679;SDS011;68213;40.528;44.712;2023-07-09T04:35:48;38.58;;;8.23;;
62679;SDS011;68213;40.528;44.712;2023-07-09T04:36:49;39.47;;;7.88;;
62679;SDS011;68213;40.528;44.712;2023-07-09T04:37:50;31.65;;;7.95;;
62679;SDS011;68213;40.528;44.712;2023-07-09T04:38:50;36.83;;;7.65;;
62679;SDS011;68213;40.528;44.712;2023-07-09T04:39:51;40.55;;;8.98;;
62679;SDS011;68213;40.528;44.712;2023-07-09T04:40:52;36.45;;;8.57;;
62679;SDS011;68213;40.528;44.712;2023-07-09T04:41:53;48.00;;;8.55;;
62679;SDS011;68213;40.528;44.712;2023-07-09T04:42:53;41.42;;;8.45;;
62679;SDS011;68213;40.528;44.712;2023-07-09T04:43:54;50.15;;;8.82;;
62679;SDS011;68213;40.528;44.712;2023-07-09T04:44:55;41.67;;;7.57;;
62679;SDS011;68213;40.528;44.712;2023-07-09T04:45:58;42.53;;;8.35;;
62679;SDS011;68213;40.528;44.712;2023-07-09T04:46:59;51.88;;;7.68;;
62679;SDS011;68213;40.528;44.712;2023-07-09T04:48:00;38.08;;;7.93;;
62679;SDS011;68213;40.528;44.712;2023-07-09T04:49:01;41.20;;;8.82;;
62679;SDS011;68213;40.528;44.712;2023-07-09T04:50:03;52.03;;;9.10;;
62679;SDS011;68213;40.528;44.712;2023-07-09T04:51:04;61.67;;;10.10;;
62679;SDS011;68213;40.528;44.712;2023-07-09T04:52:05;57.67;;;9.20;;
62679;SDS011;68213;40.528;44.712;2023-07-09T04:53:07;63.30;;;10.27;;
62679;SDS011;68213;40.528;44.712;2023-07-09T04:54:07;63.85;;;9.45;;
62679;SDS011;68213;40.528;44.712;2023-07-09T04:55:08;47.67;;;9.60;;
62679;SDS011;68213;40.528;44.712;2023-07-09T04:56:09;58.22;;;9.48;;
62679;SDS011;68213;40.528;44.712;2023-07-09T04:57:11;63.97;;;10.82;;
62679;SDS011;68213;40.528;44.712;2023-07-09T04:58:12;63.25;;;11.73;;
62679;SDS011;68213;40.528;44.712;2023-07-09T04:59:13;93.03;;;13.45;;
62679;SDS011;68213;40.528;44.712;2023-07-09T05:00:13;83.70;;;12.60;;
62679;SDS011;68213;40.528;44.712;2023-07-09T05:01:14;76.68;;;11.93;;
62679;SDS011;68213;40.528;44.712;2023-07-09T05:02:15;72.03;;;11.80;;
62679;SDS011;68213;40.528;44.712;2023-07-09T05:03:16;88.28;;;12.93;;
62679;SDS011;68213;40.528;44.712;2023-07-09T05:04:18;88.75;;;13.77;;
62679;SDS011;68213;40.528;44.712;2023-07-09T05:05:19;84.15;;;13.85;;
62679;SDS011;68213;40.528;44.712;2023-07-09T05:06:20;90.10;;;13.52;;
62679;SDS011;68213;40.528;44.712;2023-07-09T05:07:21;92.45;;;14.13;;
62679;SDS011;68213;40.528;44.712;2023-07-09T05:08:24;90.28;;;15.10;;
62679;SDS011;68213;40.528;44.712;2023-07-09T05:09:26;97.00;;;14.90;;
62679;SDS011;68213;40.528;44.712;2023-07-09T05:10:26;98.80;;;15.32;;
62679;SDS011;68213;40.528;44.712;2023-07-09T05:11:27;97.03;;;14.70;;
62679;SDS011;68213;40.528;44.712;2023-07-09T05:12:28;92.18;;;15.30;;
62679;SDS011;68213;40.528;44.712;2023-07-09T05:13:29;110.00;;;15.63;;
62679;SDS011;68213;40.528;44.712;2023-07-09T05:14:29;112.13;;;17.02;;
62679;SDS011;68213;40.528;44.712;2023-07-09T05:15:30;124.35;;;16.80;;
62679;SDS011;68213;40.528;44.712;2023-07-09T05:16:31;101.50;;;17.13;;
62679;SDS011;68213;40.528;44.712;2023-07-09T05:17:31;115.20;;;17.70;;
62679;SDS011;68213;40.528;44.712;2023-07-09T05:18:32;134.45;;;19.42;;
62679;SDS011;68213;40.528;44.712;2023-07-09T05:19:33;108.43;;;18.65;;
62679;SDS011;68213;40.528;44.712;2023-07-09T05:20:34;118.70;;;20.55;;
62679;SDS011;68213;40.528;44.712;2023-07-09T05:21:35;121.53;;;21.08;;
62679;SDS011;68213;40.528;44.712;2023-07-09T05:22:36;133.63;;;19.52;;
62679;SDS011;68213;40.528;44.712;2023-07-09T05:23:36;129.15;;;19.35;;
62679;SDS011;68213;40.528;44.712;2023-07-09T05:24:37;130.57;;;18.58;;
62679;SDS011;68213;40.528;44.712;2023-07-09T05:25:38;110.13;;;18.00;;
62679;SDS011;68213;40.528;44.712;2023-07-09T05:26:39;118.60;;;16.77;;
62679;SDS011;68213;40.528;44.712;2023-07-09T05:27:40;115.53;;;18.70;;
62679;SDS011;68213;40.528;44.712;2023-07-09T05:28:40;109.57;;;16.45;;
62679;SDS011;68213;40.528;44.712;2023-07-09T05:29:41;107.80;;;16.42;;
62679;SDS011;68213;40.528;44.712;2023-07-09T05:30:42;104.10;;;16.15;;
62679;SDS011;68213;40.528;44.712;2023-07-09T05:31:43;104.60;;;16.42;;
62679;SDS011;68213;40.528;44.712;2023-07-09T05:32:43;102.72;;;15.45;;
62679;SDS011;68213;40.528;44.712;2023-07-09T05:33:44;101.72;;;15.80;;
62679;SDS011;68213;40.528;44.712;2023-07-09T05:34:45;73.35;;;13.75;;
62679;SDS011;68213;40.528;44.712;2023-07-09T05:35:46;71.55;;;13.10;;
62679;SDS011;68213;40.528;44.712;2023-07-09T05:36:47;76.95;;;13.18;;
62679;SDS011;68213;40.528;44.712;2023-07-09T05:37:48;75.88;;;13.23;;
62679;SDS011;68213;40.528;44.712;2023-07-09T05:38:48;65.97;;;11.95;;
62679;SDS011;68213;40.528;44.712;2023-07-09T05:39:50;65.47;;;9.95;;
62679;SDS011;68213;40.528;44.712;2023-07-09T05:40:59;70.57;;;10.93;;
62679;SDS011;68213;40.528;44.712;2023-07-09T05:42:01;61.90;;;10.90;;
62679;SDS011;68213;40.528;44.712;2023-07-09T05:43:03;65.97;;;11.32;;
62679;SDS011;68213;40.528;44.712;2023-07-09T05:44:04;32.38;;;7.35;;
62679;SDS011;68213;40.528;44.712;2023-07-09T05:45:08;35.47;;;6.75;;
62679;SDS011;68213;40.528;44.712;2023-07-09T05:46:10;21.20;;;5.97;;
62679;SDS011;68213;40.528;44.712;2023-07-09T05:47:12;23.83;;;5.95;;
62679;SDS011;68213;40.528;44.712;2023-07-09T05:48:13;24.88;;;6.07;;
62679;SDS011;68213;40.528;44.712;2023-07-09T05:49:13;22.45;;;6.18;;
62679;SDS011;68213;40.528;44.712;2023-07-09T05:50:14;25.92;;;7.25;;
62679;SDS011;68213;40.528;44.712;2023-07-09T05:51:15;34.22;;;6.40;;
62679;SDS011;68213;40.528;44.712;2023-07-09T05:52:16;31.45;;;6.50;;
62679;SDS011;68213;40.528;44.712;2023-07-09T05:53:18;24.90;;;5.68;;
62679;SDS011;68213;40.528;44.712;2023-07-09T05:54:18;15.85;;;4.57;;
62679;SDS011;68213;40.528;44.712;2023-07-09T05:55:19;17.50;;;4.30;;
62679;SDS011;68213;40.528;44.712;2023-07-09T05:56:20;13.77;;;4.97;;
62679;SDS011;68213;40.528;44.712;2023-07-09T05:57:23;12.63;;;4.47;;
62679;SDS011;68213;40.528;44.712;2023-07-09T05:58:24;17.38;;;4.85;;
62679;SDS011;68213;40.528;44.712;2023-07-09T05:59:25;19.92;;;5.25;;
62679;SDS011;68213;40.528;44.712;2023-07-09T06:00:26;16.45;;;4.72;;
62679;SDS011;68213;40.528;44.712;2023-07-09T06:01:26;10.88;;;4.30;;
62679;SDS011;68213;40.528;44.712;2023-07-09T06:02:28;15.20;;;5.45;;
62679;SDS011;68213;40.528;44.712;2023-07-09T06:03:29;15.70;;;5.18;;
62679;SDS011;68213;40.528;44.712;2023-07-09T06:04:30;14.20;;;4.60;;
62679;SDS011;68213;40.528;44.712;2023-07-09T06:05:33;12.93;;;5.32;;
62679;SDS011;68213;40.528;44.712;2023-07-09T06:06:34;15.32;;;5.00;;
62679;SDS011;68213;40.528;44.712;2023-07-09T06:07:35;13.32;;;5.00;;
62679;SDS011;68213;40.528;44.712;2023-07-09T06:08:38;13.73;;;4.90;;